ESNK/KRF METAR and TAF weather

Enter ICAO airport designator
Station Type Date Time Source
ESNK METAR 2021/08/01 17:20 UTC NOAA

ESNK 011720Z AUTO 30007KT 9999 // FEW120/// 16/06 Q0999


Station Type Date Time Source
ESNK Decoded METAR 2021/08/01 17:20 UTC NOAA

Kramfors Flygplats, Sweden (ESNK) 63-03N 017-46E 19M
Aug 01, 2021 - 01:20 PM EDT / 2021.08.01 1720 UTC
Wind: from the WNW (300 degrees) at 8 MPH (7 KT):0
Visibility: greater than 7 mile(s):0
Sky conditions: mostly clear
Temperature: 60 F (16 C)
Dew Point: 42 F (6 C)
Relative Humidity: 51%
Pressure (altimeter): 29.50 in. Hg (0999 hPa)
ob: ESNK 011720Z AUTO 30007KT 9999 // FEW120/// 16/06 Q0999
cycle: 17

Station Type Date Time Source
ESNK TAF 2017/12/15 06:00 UTC NOAA

TAF
AMD ESNK 150654Z 1506/1521 35005KT 6000 -SN BKN016
TEMPO 1506/1521 2000 SN SG VV009

Example: see airport list